createdAt,value
2023-03-31T08:53:05.624Z,24.19
2023-03-31T08:55:44.927Z,25.41
2023-03-31T09:00:48.156Z,25.54
2023-03-31T09:03:24.406Z,25.45
2023-03-31T09:06:01.216Z,25.25
2023-03-31T11:23:42.069Z,23.22
2023-03-31T11:26:16.616Z,23.94
2023-03-31T11:29:04.644Z,24.34
2023-03-31T11:31:43.395Z,24.67
2023-03-31T11:34:31.848Z,24.96
2023-03-31T11:37:05.071Z,25.24
2023-03-31T11:39:50.338Z,25.46
2023-03-31T11:42:29.350Z,25.65
2023-03-31T11:45:00.344Z,25.75
2023-03-31T11:47:31.149Z,25.57
2023-03-31T11:50:21.622Z,25.75
2023-03-31T11:52:56.982Z,25.60
2023-03-31T11:55:23.678Z,25.34
2023-03-31T11:58:04.997Z,25.38
2023-03-31T12:00:50.411Z,25.33
2023-03-31T12:03:24.133Z,25.48
2023-03-31T12:05:56.650Z,25.24
2023-03-31T12:08:33.735Z,25.11
2023-03-31T12:11:08.430Z,24.97
2023-03-31T12:14:04.042Z,25.10
2023-03-31T12:16:40.162Z,25.10
2023-03-31T12:19:17.482Z,24.97
2023-03-31T12:22:00.490Z,25.10
2023-03-31T12:24:27.271Z,25.17
2023-03-31T12:27:02.498Z,25.23
2023-03-31T12:29:57.142Z,25.27
2023-03-31T12:32:27.136Z,25.33
2023-03-31T12:35:06.869Z,25.31
2023-03-31T12:38:10.033Z,25.37
2023-03-31T12:41:08.401Z,25.41
2023-03-31T12:44:02.264Z,25.47
2023-03-31T12:46:40.817Z,25.49
2023-03-31T12:49:28.860Z,25.51
2023-03-31T12:51:58.304Z,25.45
2023-03-31T12:54:52.557Z,25.43
2023-03-31T12:57:21.106Z,25.54
2023-03-31T13:00:07.732Z,25.57
2023-03-31T13:02:34.559Z,25.60
2023-03-31T13:05:15.472Z,25.66
2023-03-31T13:07:42.265Z,25.65
2023-03-31T13:10:14.984Z,25.75
2023-03-31T13:12:41.862Z,25.76
2023-03-31T13:15:13.493Z,25.76
2023-03-31T13:17:40.385Z,25.79
2023-03-31T13:20:38.839Z,25.79
2023-03-31T13:23:12.198Z,25.79
2023-03-31T13:25:44.231Z,25.84
2023-03-31T13:28:23.885Z,25.78
2023-03-31T13:31:09.224Z,25.88
2023-03-31T13:33:47.465Z,25.92
2023-03-31T13:36:32.613Z,25.95
2023-03-31T13:39:10.462Z,26.00
2023-03-31T13:41:51.376Z,25.91
2023-03-31T13:44:39.608Z,25.98
2023-03-31T13:47:34.127Z,25.93
2023-03-31T13:50:13.278Z,25.90
2023-03-31T13:53:19.644Z,25.81
2023-03-31T13:55:46.272Z,25.85
2023-03-31T13:58:35.279Z,25.78
2023-03-31T14:01:21.734Z,25.14
2023-03-31T14:03:57.716Z,25.25
2023-03-31T14:06:45.260Z,25.28
2023-03-31T14:09:22.464Z,25.37
2023-03-31T14:11:49.185Z,25.36
2023-03-31T14:14:17.083Z,25.27
2023-03-31T14:16:48.777Z,25.25
2023-03-31T14:19:52.774Z,25.10
2023-03-31T14:22:56.608Z,25.08
2023-03-31T14:26:01.402Z,24.92
2023-03-31T14:28:37.077Z,24.77
2023-03-31T14:31:15.325Z,24.70
2023-03-31T14:34:15.537Z,24.77
2023-03-31T14:36:46.190Z,24.36
